sensor_id;sensor_type;location;lat;lon;timestamp;temperature;humidity
46139;DHT22;32398;49.112;8.598;2023-10-19T00:00:47;12.00;90.80
46139;DHT22;32398;49.112;8.598;2023-10-19T00:03:15;12.00;90.80
46139;DHT22;32398;49.112;8.598;2023-10-19T00:05:43;12.00;90.80
46139;DHT22;32398;49.112;8.598;2023-10-19T00:08:10;12.00;90.90
46139;DHT22;32398;49.112;8.598;2023-10-19T00:10:40;12.00;90.90
46139;DHT22;32398;49.112;8.598;2023-10-19T00:13:10;12.00;90.90
46139;DHT22;32398;49.112;8.598;2023-10-19T00:15:37;12.00;90.90
46139;DHT22;32398;49.112;8.598;2023-10-19T00:18:05;12.00;90.90
46139;DHT22;32398;49.112;8.598;2023-10-19T00:20:46;12.00;90.90
46139;DHT22;32398;49.112;8.598;2023-10-19T00:23:16;12.00;90.90
46139;DHT22;32398;49.112;8.598;2023-10-19T00:25:44;12.00;90.90
46139;DHT22;32398;49.112;8.598;2023-10-19T00:28:17;12.00;91.00
46139;DHT22;32398;49.112;8.598;2023-10-19T00:30:43;12.00;90.90
46139;DHT22;32398;49.112;8.598;2023-10-19T00:33:10;12.00;90.90
46139;DHT22;32398;49.112;8.598;2023-10-19T00:35:42;12.00;91.00
46139;DHT22;32398;49.112;8.598;2023-10-19T00:38:12;12.00;91.00
46139;DHT22;32398;49.112;8.598;2023-10-19T00:40:52;12.00;91.00
46139;DHT22;32398;49.112;8.598;2023-10-19T00:43:29;12.00;91.00
46139;DHT22;32398;49.112;8.598;2023-10-19T00:45:58;12.00;91.00
46139;DHT22;32398;49.112;8.598;2023-10-19T00:48:26;12.00;91.00
46139;DHT22;32398;49.112;8.598;2023-10-19T00:50:53;12.00;91.00
46139;DHT22;32398;49.112;8.598;2023-10-19T00:53:33;12.00;91.00
46139;DHT22;32398;49.112;8.598;2023-10-19T00:56:00;12.00;91.10
46139;DHT22;32398;49.112;8.598;2023-10-19T00:58:32;12.00;91.10
46139;DHT22;32398;49.112;8.598;2023-10-19T01:01:01;12.00;91.10
46139;DHT22;32398;49.112;8.598;2023-10-19T01:03:31;12.00;91.10
46139;DHT22;32398;49.112;8.598;2023-10-19T01:06:02;12.00;91.10
46139;DHT22;32398;49.112;8.598;2023-10-19T01:08:36;12.00;91.10
46139;DHT22;32398;49.112;8.598;2023-10-19T01:11:06;12.00;91.20
46139;DHT22;32398;49.112;8.598;2023-10-19T01:13:37;11.90;91.20
46139;DHT22;32398;49.112;8.598;2023-10-19T01:16:04;12.00;91.30
46139;DHT22;32398;49.112;8.598;2023-10-19T01:18:30;12.00;91.30
46139;DHT22;32398;49.112;8.598;2023-10-19T01:20:58;12.00;91.40
46139;DHT22;32398;49.112;8.598;2023-10-19T01:23:29;12.00;91.40
46139;DHT22;32398;49.112;8.598;2023-10-19T01:25:57;12.00;91.50
46139;DHT22;32398;49.112;8.598;2023-10-19T01:28:31;12.00;91.50
46139;DHT22;32398;49.112;8.598;2023-10-19T01:31:09;11.90;91.50
46139;DHT22;32398;49.112;8.598;2023-10-19T01:33:40;12.00;91.50
46139;DHT22;32398;49.112;8.598;2023-10-19T01:36:07;11.90;91.40
46139;DHT22;32398;49.112;8.598;2023-10-19T01:38:38;11.90;91.40
46139;DHT22;32398;49.112;8.598;2023-10-19T01:41:06;11.90;91.40
46139;DHT22;32398;49.112;8.598;2023-10-19T01:43:39;12.00;91.40
46139;DHT22;32398;49.112;8.598;2023-10-19T01:46:05;11.90;91.40
46139;DHT22;32398;49.112;8.598;2023-10-19T01:48:37;11.90;91.40
46139;DHT22;32398;49.112;8.598;2023-10-19T01:51:04;12.00;91.50
46139;DHT22;32398;49.112;8.598;2023-10-19T01:53:31;12.00;91.50
46139;DHT22;32398;49.112;8.598;2023-10-19T01:56:00;12.00;91.50
46139;DHT22;32398;49.112;8.598;2023-10-19T01:58:30;12.00;91.50
46139;DHT22;32398;49.112;8.598;2023-10-19T02:01:01;11.90;91.60
46139;DHT22;32398;49.112;8.598;2023-10-19T02:03:32;11.90;91.60
46139;DHT22;32398;49.112;8.598;2023-10-19T02:05:59;11.90;91.70
46139;DHT22;32398;49.112;8.598;2023-10-19T02:08:24;12.10;91.80
46139;DHT22;32398;49.112;8.598;2023-10-19T02:10:52;11.90;91.70
46139;DHT22;32398;49.112;8.598;2023-10-19T02:13:20;11.80;91.70
46139;DHT22;32398;49.112;8.598;2023-10-19T02:15:48;11.90;91.70
46139;DHT22;32398;49.112;8.598;2023-10-19T02:18:16;12.00;91.80
46139;DHT22;32398;49.112;8.598;2023-10-19T02:20:42;11.90;91.70
46139;DHT22;32398;49.112;8.598;2023-10-19T02:23:13;11.90;91.70
46139;DHT22;32398;49.112;8.598;2023-10-19T02:25:41;11.90;91.70
46139;DHT22;32398;49.112;8.598;2023-10-19T02:28:07;12.10;91.80
46139;DHT22;32398;49.112;8.598;2023-10-19T02:30:36;12.00;91.80
46139;DHT22;32398;49.112;8.598;2023-10-19T02:33:01;12.00;91.80
46139;DHT22;32398;49.112;8.598;2023-10-19T02:35:31;11.90;91.80
46139;DHT22;32398;49.112;8.598;2023-10-19T02:38:01;12.00;91.90
46139;DHT22;32398;49.112;8.598;2023-10-19T02:40:29;11.90;91.80
46139;DHT22;32398;49.112;8.598;2023-10-19T02:42:59;11.90;91.80
46139;DHT22;32398;49.112;8.598;2023-10-19T02:45:28;11.90;91.80
46139;DHT22;32398;49.112;8.598;2023-10-19T02:47:58;11.90;91.80
46139;DHT22;32398;49.112;8.598;2023-10-19T02:50:24;11.90;91.80
46139;DHT22;32398;49.112;8.598;2023-10-19T02:52:51;11.90;91.80
46139;DHT22;32398;49.112;8.598;2023-10-19T02:55:19;11.90;91.80
46139;DHT22;32398;49.112;8.598;2023-10-19T02:57:45;11.90;91.80
46139;DHT22;32398;49.112;8.598;2023-10-19T03:00:12;11.90;91.80
46139;DHT22;32398;49.112;8.598;2023-10-19T03:02:39;11.90;91.80
46139;DHT22;32398;49.112;8.598;2023-10-19T03:05:08;11.90;91.80
46139;DHT22;32398;49.112;8.598;2023-10-19T03:07:49;11.90;91.80
46139;DHT22;32398;49.112;8.598;2023-10-19T03:10:23;11.90;92.10
46139;DHT22;32398;49.112;8.598;2023-10-19T03:12:49;11.90;91.80
46139;DHT22;32398;49.112;8.598;2023-10-19T03:15:17;11.90;91.80
46139;DHT22;32398;49.112;8.598;2023-10-19T03:17:46;11.90;91.80
46139;DHT22;32398;49.112;8.598;2023-10-19T03:20:31;11.90;91.80
46139;DHT22;32398;49.112;8.598;2023-10-19T03:23:00;11.90;91.80
46139;DHT22;32398;49.112;8.598;2023-10-19T03:25:28;12.00;91.80
46139;DHT22;32398;49.112;8.598;2023-10-19T03:28:12;11.80;91.80
46139;DHT22;32398;49.112;8.598;2023-10-19T03:30:43;11.90;91.80
46139;DHT22;32398;49.112;8.598;2023-10-19T03:33:12;11.90;91.80
46139;DHT22;32398;49.112;8.598;2023-10-19T03:35:46;12.00;91.80
46139;DHT22;32398;49.112;8.598;2023-10-19T03:38:13;11.90;91.80
46139;DHT22;32398;49.112;8.598;2023-10-19T03:40:44;11.90;91.90
46139;DHT22;32398;49.112;8.598;2023-10-19T03:43:17;11.90;91.90
46139;DHT22;32398;49.112;8.598;2023-10-19T03:45:47;11.90;92.00
46139;DHT22;32398;49.112;8.598;2023-10-19T03:48:24;11.80;91.90
46139;DHT22;32398;49.112;8.598;2023-10-19T03:51:16;11.90;91.90
46139;DHT22;32398;49.112;8.598;2023-10-19T03:53:51;11.90;92.00
46139;DHT22;32398;49.112;8.598;2023-10-19T03:56:20;11.90;92.00
46139;DHT22;32398;49.112;8.598;2023-10-19T03:59:22;11.90;91.90
46139;DHT22;32398;49.112;8.598;2023-10-19T04:01:58;11.90;91.90
46139;DHT22;32398;49.112;8.598;2023-10-19T04:04:35;11.90;91.90
46139;DHT22;32398;49.112;8.598;2023-10-19T04:07:06;12.00;91.90
46139;DHT22;32398;49.112;8.598;2023-10-19T04:09:47;11.90;91.90
46139;DHT22;32398;49.112;8.598;2023-10-19T04:15:40;11.90;91.90
46139;DHT22;32398;49.112;8.598;2023-10-19T04:18:23;11.90;91.90
46139;DHT22;32398;49.112;8.598;2023-10-19T04:21:28;11.90;91.90
46139;DHT22;32398;49.112;8.598;2023-10-19T04:24:00;11.90;91.90
46139;DHT22;32398;49.112;8.598;2023-10-19T04:26:27;11.90;91.90
46139;DHT22;32398;49.112;8.598;2023-10-19T04:28:54;11.90;91.90
46139;DHT22;32398;49.112;8.598;2023-10-19T04:31:20;11.90;91.90
46139;DHT22;32398;49.112;8.598;2023-10-19T04:33:49;11.90;91.90
46139;DHT22;32398;49.112;8.598;2023-10-19T04:36:15;11.90;91.90
46139;DHT22;32398;49.112;8.598;2023-10-19T04:38:45;11.90;91.90
46139;DHT22;32398;49.112;8.598;2023-10-19T04:41:13;11.90;92.00
46139;DHT22;32398;49.112;8.598;2023-10-19T04:43:40;11.90;92.00
46139;DHT22;32398;49.112;8.598;2023-10-19T04:46:12;11.90;92.10
46139;DHT22;32398;49.112;8.598;2023-10-19T04:48:39;11.90;92.20
46139;DHT22;32398;49.112;8.598;2023-10-19T04:51:07;12.00;92.30
46139;DHT22;32398;49.112;8.598;2023-10-19T04:53:34;11.90;92.30
46139;DHT22;32398;49.112;8.598;2023-10-19T04:56:02;12.00;92.30
46139;DHT22;32398;49.112;8.598;2023-10-19T04:58:30;11.90;93.90
46139;DHT22;32398;49.112;8.598;2023-10-19T05:00:57;11.90;94.40
46139;DHT22;32398;49.112;8.598;2023-10-19T05:03:24;11.90;94.40
46139;DHT22;32398;49.112;8.598;2023-10-19T05:05:51;11.90;94.30
46139;DHT22;32398;49.112;8.598;2023-10-19T05:08:17;11.90;94.20
46139;DHT22;32398;49.112;8.598;2023-10-19T05:10:44;11.80;94.10
46139;DHT22;32398;49.112;8.598;2023-10-19T05:13:11;11.90;94.00
46139;DHT22;32398;49.112;8.598;2023-10-19T05:15:40;11.90;93.80
46139;DHT22;32398;49.112;8.598;2023-10-19T05:18:08;11.90;93.70
46139;DHT22;32398;49.112;8.598;2023-10-19T05:20:34;11.90;93.60
46139;DHT22;32398;49.112;8.598;2023-10-19T05:23:05;11.90;93.60
46139;DHT22;32398;49.112;8.598;2023-10-19T05:25:33;11.90;93.50
46139;DHT22;32398;49.112;8.598;2023-10-19T05:28:00;11.90;93.40
46139;DHT22;32398;49.112;8.598;2023-10-19T05:30:26;11.80;93.30
46139;DHT22;32398;49.112;8.598;2023-10-19T05:32:56;11.90;93.30
46139;DHT22;32398;49.112;8.598;2023-10-19T05:35:25;11.80;93.30
46139;DHT22;32398;49.112;8.598;2023-10-19T05:37:52;11.80;93.20
46139;DHT22;32398;49.112;8.598;2023-10-19T05:40:20;11.80;93.20
46139;DHT22;32398;49.112;8.598;2023-10-19T05:42:48;11.80;93.10
46139;DHT22;32398;49.112;8.598;2023-10-19T05:45:15;11.80;93.10
46139;DHT22;32398;49.112;8.598;2023-10-19T05:47:42;11.80;93.00
46139;DHT22;32398;49.112;8.598;2023-10-19T05:50:11;11.80;93.00
46139;DHT22;32398;49.112;8.598;2023-10-19T05:52:40;11.80;93.00
46139;DHT22;32398;49.112;8.598;2023-10-19T05:55:08;11.80;93.00
46139;DHT22;32398;49.112;8.598;2023-10-19T05:57:34;11.70;93.00
46139;DHT22;32398;49.112;8.598;2023-10-19T06:00:04;11.70;92.90
46139;DHT22;32398;49.112;8.598;2023-10-19T06:02:31;11.70;92.90
46139;DHT22;32398;49.112;8.598;2023-10-19T06:04:58;11.80;92.90
46139;DHT22;32398;49.112;8.598;2023-10-19T06:07:26;11.70;92.90
46139;DHT22;32398;49.112;8.598;2023-10-19T06:09:53;11.70;92.90
46139;DHT22;32398;49.112;8.598;2023-10-19T06:12:19;11.70;92.90
46139;DHT22;32398;49.112;8.598;2023-10-19T06:14:46;11.70;92.90
46139;DHT22;32398;49.112;8.598;2023-10-19T06:17:13;11.70;92.90
46139;DHT22;32398;49.112;8.598;2023-10-19T06:19:44;11.70;92.90
46139;DHT22;32398;49.112;8.598;2023-10-19T06:22:11;11.70;93.00
46139;DHT22;32398;49.112;8.598;2023-10-19T06:24:42;11.70;93.00
46139;DHT22;32398;49.112;8.598;2023-10-19T06:27:09;11.70;93.00
46139;DHT22;32398;49.112;8.598;2023-10-19T06:29:35;11.70;93.00
46139;DHT22;32398;49.112;8.598;2023-10-19T06:32:02;11.70;93.10
46139;DHT22;32398;49.112;8.598;2023-10-19T06:34:28;11.70;93.10
46139;DHT22;32398;49.112;8.598;2023-10-19T06:36:55;11.60;93.10
46139;DHT22;32398;49.112;8.598;2023-10-19T06:39:22;11.60;93.20
46139;DHT22;32398;49.112;8.598;2023-10-19T06:41:50;11.60;93.20
46139;DHT22;32398;49.112;8.598;2023-10-19T06:44:17;11.60;93.20
46139;DHT22;32398;49.112;8.598;2023-10-19T06:46:44;11.60;93.20
46139;DHT22;32398;49.112;8.598;2023-10-19T06:49:10;11.60;93.20
46139;DHT22;32398;49.112;8.598;2023-10-19T06:51:37;11.60;93.30
46139;DHT22;32398;49.112;8.598;2023-10-19T06:54:04;11.60;93.40
46139;DHT22;32398;49.112;8.598;2023-10-19T06:56:33;11.60;93.40
46139;DHT22;32398;49.112;8.598;2023-10-19T06:59:03;11.60;93.40
46139;DHT22;32398;49.112;8.598;2023-10-19T07:01:31;11.60;93.50
46139;DHT22;32398;49.112;8.598;2023-10-19T07:04:01;11.60;93.50
46139;DHT22;32398;49.112;8.598;2023-10-19T07:06:28;11.60;93.50
46139;DHT22;32398;49.112;8.598;2023-10-19T07:08:56;11.60;93.50
46139;DHT22;32398;49.112;8.598;2023-10-19T07:11:23;11.60;93.60
46139;DHT22;32398;49.112;8.598;2023-10-19T07:13:50;11.60;93.60
46139;DHT22;32398;49.112;8.598;2023-10-19T07:16:18;11.60;93.60
46139;DHT22;32398;49.112;8.598;2023-10-19T07:18:45;11.60;93.70
46139;DHT22;32398;49.112;8.598;2023-10-19T07:21:12;11.60;93.70
46139;DHT22;32398;49.112;8.598;2023-10-19T07:23:38;11.60;93.70
46139;DHT22;32398;49.112;8.598;2023-10-19T07:26:05;11.60;93.70
46139;DHT22;32398;49.112;8.598;2023-10-19T07:28:32;11.60;93.70
46139;DHT22;32398;49.112;8.598;2023-10-19T07:30:59;11.60;93.80
46139;DHT22;32398;49.112;8.598;2023-10-19T07:33:27;11.60;93.80
46139;DHT22;32398;49.112;8.598;2023-10-19T07:35:54;11.60;93.80
46139;DHT22;32398;49.112;8.598;2023-10-19T07:38:21;11.60;93.90
46139;DHT22;32398;49.112;8.598;2023-10-19T07:40:48;11.70;94.10
46139;DHT22;32398;49.112;8.598;2023-10-19T07:43:14;11.70;94.10
46139;DHT22;32398;49.112;8.598;2023-10-19T07:45:41;11.60;94.10
46139;DHT22;32398;49.112;8.598;2023-10-19T07:48:08;11.70;94.30
46139;DHT22;32398;49.112;8.598;2023-10-19T07:50:37;11.70;94.30
46139;DHT22;32398;49.112;8.598;2023-10-19T07:53:05;11.70;94.30
46139;DHT22;32398;49.112;8.598;2023-10-19T07:55:33;11.70;94.30
46139;DHT22;32398;49.112;8.598;2023-10-19T07:58:00;11.70;94.30
46139;DHT22;32398;49.112;8.598;2023-10-19T08:00:27;11.70;94.20
46139;DHT22;32398;49.112;8.598;2023-10-19T08:02:55;11.70;94.10
46139;DHT22;32398;49.112;8.598;2023-10-19T08:05:22;11.70;94.10
46139;DHT22;32398;49.112;8.598;2023-10-19T08:07:50;11.70;94.00
46139;DHT22;32398;49.112;8.598;2023-10-19T08:10:17;11.70;93.90
46139;DHT22;32398;49.112;8.598;2023-10-19T08:12:45;11.70;93.80
46139;DHT22;32398;49.112;8.598;2023-10-19T08:15:13;11.80;93.80
46139;DHT22;32398;49.112;8.598;2023-10-19T08:17:40;11.70;93.70
46139;DHT22;32398;49.112;8.598;2023-10-19T08:20:08;11.80;93.60
46139;DHT22;32398;49.112;8.598;2023-10-19T08:22:36;11.80;93.60
46139;DHT22;32398;49.112;8.598;2023-10-19T08:25:05;11.80;93.60
46139;DHT22;32398;49.112;8.598;2023-10-19T08:27:37;11.80;93.60
46139;DHT22;32398;49.112;8.598;2023-10-19T08:30:04;11.80;93.60
46139;DHT22;32398;49.112;8.598;2023-10-19T08:32:31;11.80;93.60
46139;DHT22;32398;49.112;8.598;2023-10-19T08:34:58;11.90;93.60
46139;DHT22;32398;49.112;8.598;2023-10-19T08:37:25;11.90;93.60
46139;DHT22;32398;49.112;8.598;2023-10-19T08:39:52;11.90;93.50
46139;DHT22;32398;49.112;8.598;2023-10-19T08:42:20;11.90;93.60
46139;DHT22;32398;49.112;8.598;2023-10-19T08:44:47;11.90;93.70
46139;DHT22;32398;49.112;8.598;2023-10-19T08:47:13;12.00;93.80
46139;DHT22;32398;49.112;8.598;2023-10-19T08:49:40;12.00;93.80
46139;DHT22;32398;49.112;8.598;2023-10-19T08:52:07;12.00;93.80
46139;DHT22;32398;49.112;8.598;2023-10-19T08:54:34;12.00;94.10
46139;DHT22;32398;49.112;8.598;2023-10-19T08:57:02;12.00;93.80
46139;DHT22;32398;49.112;8.598;2023-10-19T08:59:30;12.00;93.80
46139;DHT22;32398;49.112;8.598;2023-10-19T09:02:00;12.10;93.90
46139;DHT22;32398;49.112;8.598;2023-10-19T09:04:27;12.10;93.80
46139;DHT22;32398;49.112;8.598;2023-10-19T09:06:54;12.10;93.80
46139;DHT22;32398;49.112;8.598;2023-10-19T09:09:21;12.10;93.80
46139;DHT22;32398;49.112;8.598;2023-10-19T09:11:50;12.10;93.70
46139;DHT22;32398;49.112;8.598;2023-10-19T09:14:30;12.20;93.70
46139;DHT22;32398;49.112;8.598;2023-10-19T09:17:00;12.20;93.70
46139;DHT22;32398;49.112;8.598;2023-10-19T09:19:38;12.20;93.70
46139;DHT22;32398;49.112;8.598;2023-10-19T09:22:05;12.20;93.60
46139;DHT22;32398;49.112;8.598;2023-10-19T09:24:42;12.30;93.70
46139;DHT22;32398;49.112;8.598;2023-10-19T09:27:11;12.30;93.70
46139;DHT22;32398;49.112;8.598;2023-10-19T09:29:41;12.30;93.70
46139;DHT22;32398;49.112;8.598;2023-10-19T09:32:09;12.30;93.80
46139;DHT22;32398;49.112;8.598;2023-10-19T09:34:39;12.30;93.80
46139;DHT22;32398;49.112;8.598;2023-10-19T09:37:08;12.40;93.70
46139;DHT22;32398;49.112;8.598;2023-10-19T09:39:36;12.40;93.70
46139;DHT22;32398;49.112;8.598;2023-10-19T09:42:08;12.40;93.60
46139;DHT22;32398;49.112;8.598;2023-10-19T09:44:40;12.50;93.60
46139;DHT22;32398;49.112;8.598;2023-10-19T09:47:10;12.50;93.50
46139;DHT22;32398;49.112;8.598;2023-10-19T09:49:38;12.60;93.50
46139;DHT22;32398;49.112;8.598;2023-10-19T09:52:05;12.60;93.40
46139;DHT22;32398;49.112;8.598;2023-10-19T09:54:34;12.60;93.50
46139;DHT22;32398;49.112;8.598;2023-10-19T09:57:13;12.70;93.50
46139;DHT22;32398;49.112;8.598;2023-10-19T09:59:44;12.80;93.50
46139;DHT22;32398;49.112;8.598;2023-10-19T10:02:13;12.80;93.40
46139;DHT22;32398;49.112;8.598;2023-10-19T10:04:40;12.90;93.40
46139;DHT22;32398;49.112;8.598;2023-10-19T10:07:07;12.90;93.30
46139;DHT22;32398;49.112;8.598;2023-10-19T10:09:35;13.00;93.20
46139;DHT22;32398;49.112;8.598;2023-10-19T10:12:18;13.10;93.30
46139;DHT22;32398;49.112;8.598;2023-10-19T10:14:52;13.10;93.20
46139;DHT22;32398;49.112;8.598;2023-10-19T10:17:22;13.20;93.10
46139;DHT22;32398;49.112;8.598;2023-10-19T10:19:50;13.20;93.00
46139;DHT22;32398;49.112;8.598;2023-10-19T10:22:17;13.30;93.00
46139;DHT22;32398;49.112;8.598;2023-10-19T10:24:47;13.30;93.00
46139;DHT22;32398;49.112;8.598;2023-10-19T10:27:19;13.40;93.10
46139;DHT22;32398;49.112;8.598;2023-10-19T10:29:53;13.40;93.10
46139;DHT22;32398;49.112;8.598;2023-10-19T10:35:03;13.50;93.20
46139;DHT22;32398;49.112;8.598;2023-10-19T10:37:32;13.50;93.20
46139;DHT22;32398;49.112;8.598;2023-10-19T10:40:03;13.50;93.10
46139;DHT22;32398;49.112;8.598;2023-10-19T10:42:31;13.50;93.20
46139;DHT22;32398;49.112;8.598;2023-10-19T10:44:59;13.50;93.20
46139;DHT22;32398;49.112;8.598;2023-10-19T10:47:28;13.50;93.20
46139;DHT22;32398;49.112;8.598;2023-10-19T10:49:55;13.50;93.20
46139;DHT22;32398;49.112;8.598;2023-10-19T10:52:25;13.60;93.30
46139;DHT22;32398;49.112;8.598;2023-10-19T10:54:51;13.50;93.30
46139;DHT22;32398;49.112;8.598;2023-10-19T10:57:18;13.60;93.40
46139;DHT22;32398;49.112;8.598;2023-10-19T10:59:45;13.60;93.40
46139;DHT22;32398;49.112;8.598;2023-10-19T11:02:18;13.60;93.50
46139;DHT22;32398;49.112;8.598;2023-10-19T11:04:47;13.60;93.60
46139;DHT22;32398;49.112;8.598;2023-10-19T11:07:17;13.60;93.70
46139;DHT22;32398;49.112;8.598;2023-10-19T11:09:46;13.60;93.70
46139;DHT22;32398;49.112;8.598;2023-10-19T11:12:13;13.60;93.70
46139;DHT22;32398;49.112;8.598;2023-10-19T11:14:51;13.60;93.80
46139;DHT22;32398;49.112;8.598;2023-10-19T11:17:18;13.60;93.80
46139;DHT22;32398;49.112;8.598;2023-10-19T11:19:49;13.60;93.90
46139;DHT22;32398;49.112;8.598;2023-10-19T11:22:15;13.60;93.90
46139;DHT22;32398;49.112;8.598;2023-10-19T11:24:42;13.70;93.90
46139;DHT22;32398;49.112;8.598;2023-10-19T11:27:10;13.70;94.00
46139;DHT22;32398;49.112;8.598;2023-10-19T11:29:37;13.70;94.00
46139;DHT22;32398;49.112;8.598;2023-10-19T11:32:04;13.70;94.10
46139;DHT22;32398;49.112;8.598;2023-10-19T11:34:31;13.70;94.40
46139;DHT22;32398;49.112;8.598;2023-10-19T11:36:59;13.70;94.10
46139;DHT22;32398;49.112;8.598;2023-10-19T11:39:28;13.70;94.10
46139;DHT22;32398;49.112;8.598;2023-10-19T11:41:55;13.70;94.20
46139;DHT22;32398;49.112;8.598;2023-10-19T11:44:24;13.80;94.50
46139;DHT22;32398;49.112;8.598;2023-10-19T11:46:50;13.80;94.20
46139;DHT22;32398;49.112;8.598;2023-10-19T11:49:17;13.80;94.20
46139;DHT22;32398;49.112;8.598;2023-10-19T11:51:45;13.80;94.20
46139;DHT22;32398;49.112;8.598;2023-10-19T11:54:12;13.80;94.60
46139;DHT22;32398;49.112;8.598;2023-10-19T11:56:38;13.80;94.60
46139;DHT22;32398;49.112;8.598;2023-10-19T11:59:05;13.80;94.50
46139;DHT22;32398;49.112;8.598;2023-10-19T12:01:34;13.80;94.40
46139;DHT22;32398;49.112;8.598;2023-10-19T12:04:00;13.80;94.40
46139;DHT22;32398;49.112;8.598;2023-10-19T12:06:27;13.80;94.30
46139;DHT22;32398;49.112;8.598;2023-10-19T12:08:54;13.80;94.70
46139;DHT22;32398;49.112;8.598;2023-10-19T12:11:24;13.90;94.40
46139;DHT22;32398;49.112;8.598;2023-10-19T12:13:51;13.90;94.40
46139;DHT22;32398;49.112;8.598;2023-10-19T12:16:18;13.90;94.40
46139;DHT22;32398;49.112;8.598;2023-10-19T12:18:50;13.90;94.40
46139;DHT22;32398;49.112;8.598;2023-10-19T12:21:17;13.90;94.40
46139;DHT22;32398;49.112;8.598;2023-10-19T12:23:52;14.00;94.50
46139;DHT22;32398;49.112;8.598;2023-10-19T12:26:21;13.90;94.40
46139;DHT22;32398;49.112;8.598;2023-10-19T12:28:48;14.00;94.50
46139;DHT22;32398;49.112;8.598;2023-10-19T12:31:15;14.00;94.50
46139;DHT22;32398;49.112;8.598;2023-10-19T12:33:43;14.00;94.50
46139;DHT22;32398;49.112;8.598;2023-10-19T12:36:11;14.00;94.50
46139;DHT22;32398;49.112;8.598;2023-10-19T12:38:56;14.00;94.60
46139;DHT22;32398;49.112;8.598;2023-10-19T12:41:23;14.00;94.60
46139;DHT22;32398;49.112;8.598;2023-10-19T12:43:50;14.10;94.60
46139;DHT22;32398;49.112;8.598;2023-10-19T12:46:17;14.10;94.60
46139;DHT22;32398;49.112;8.598;2023-10-19T12:48:44;14.10;94.60
46139;DHT22;32398;49.112;8.598;2023-10-19T12:51:13;14.10;94.70
46139;DHT22;32398;49.112;8.598;2023-10-19T12:53:40;14.10;94.70
46139;DHT22;32398;49.112;8.598;2023-10-19T12:56:07;14.10;94.70
46139;DHT22;32398;49.112;8.598;2023-10-19T12:58:35;14.10;94.80
46139;DHT22;32398;49.112;8.598;2023-10-19T13:01:02;14.20;94.80
46139;DHT22;32398;49.112;8.598;2023-10-19T13:03:30;14.20;94.80
46139;DHT22;32398;49.112;8.598;2023-10-19T13:05:58;14.20;94.70
46139;DHT22;32398;49.112;8.598;2023-10-19T13:08:26;14.20;94.80
46139;DHT22;32398;49.112;8.598;2023-10-19T13:10:53;14.20;94.80
46139;DHT22;32398;49.112;8.598;2023-10-19T13:13:21;14.30;94.80
46139;DHT22;32398;49.112;8.598;2023-10-19T13:15:49;14.30;94.90
46139;DHT22;32398;49.112;8.598;2023-10-19T13:18:16;14.30;94.80
46139;DHT22;32398;49.112;8.598;2023-10-19T13:20:45;14.30;94.80
46139;DHT22;32398;49.112;8.598;2023-10-19T13:23:12;14.30;94.80
46139;DHT22;32398;49.112;8.598;2023-10-19T13:25:42;14.30;94.80
46139;DHT22;32398;49.112;8.598;2023-10-19T13:28:15;14.30;94.90
46139;DHT22;32398;49.112;8.598;2023-10-19T13:30:45;14.30;94.90
46139;DHT22;32398;49.112;8.598;2023-10-19T13:33:12;14.40;94.90
46139;DHT22;32398;49.112;8.598;2023-10-19T13:35:40;14.40;95.00
46139;DHT22;32398;49.112;8.598;2023-10-19T13:38:07;14.40;95.00
46139;DHT22;32398;49.112;8.598;2023-10-19T13:40:34;14.40;95.00
46139;DHT22;32398;49.112;8.598;2023-10-19T13:43:02;14.40;95.00
46139;DHT22;32398;49.112;8.598;2023-10-19T13:45:31;14.40;95.10
46139;DHT22;32398;49.112;8.598;2023-10-19T13:47:59;14.40;95.10
46139;DHT22;32398;49.112;8.598;2023-10-19T13:50:25;14.40;95.10
46139;DHT22;32398;49.112;8.598;2023-10-19T13:52:52;14.40;95.00
46139;DHT22;32398;49.112;8.598;2023-10-19T13:55:19;14.50;95.10
46139;DHT22;32398;49.112;8.598;2023-10-19T13:57:46;14.40;95.10
46139;DHT22;32398;49.112;8.598;2023-10-19T14:00:16;14.50;95.10
46139;DHT22;32398;49.112;8.598;2023-10-19T14:02:49;14.50;95.10
46139;DHT22;32398;49.112;8.598;2023-10-19T14:05:15;14.50;95.10
46139;DHT22;32398;49.112;8.598;2023-10-19T14:07:42;14.50;95.00
46139;DHT22;32398;49.112;8.598;2023-10-19T14:10:09;14.50;94.90
46139;DHT22;32398;49.112;8.598;2023-10-19T14:12:37;14.50;94.90
46139;DHT22;32398;49.112;8.598;2023-10-19T14:15:08;14.50;94.90
46139;DHT22;32398;49.112;8.598;2023-10-19T14:17:36;14.50;94.90
46139;DHT22;32398;49.112;8.598;2023-10-19T14:20:03;14.50;95.00
46139;DHT22;32398;49.112;8.598;2023-10-19T14:22:31;14.50;95.00
46139;DHT22;32398;49.112;8.598;2023-10-19T14:24:59;14.50;94.90
46139;DHT22;32398;49.112;8.598;2023-10-19T14:27:26;14.50;94.90
46139;DHT22;32398;49.112;8.598;2023-10-19T14:29:53;14.50;94.90
46139;DHT22;32398;49.112;8.598;2023-10-19T14:32:20;14.50;94.90
46139;DHT22;32398;49.112;8.598;2023-10-19T14:34:48;14.50;94.90
46139;DHT22;32398;49.112;8.598;2023-10-19T14:37:14;14.50;94.80
46139;DHT22;32398;49.112;8.598;2023-10-19T14:39:42;14.50;94.80
46139;DHT22;32398;49.112;8.598;2023-10-19T14:42:10;14.60;94.90
46139;DHT22;32398;49.112;8.598;2023-10-19T14:44:38;14.60;94.90
46139;DHT22;32398;49.112;8.598;2023-10-19T14:47:05;14.60;94.80
46139;DHT22;32398;49.112;8.598;2023-10-19T14:49:31;14.60;95.20
46139;DHT22;32398;49.112;8.598;2023-10-19T14:52:00;14.60;94.80
46139;DHT22;32398;49.112;8.598;2023-10-19T14:54:27;14.60;94.80
46139;DHT22;32398;49.112;8.598;2023-10-19T14:56:54;14.60;95.10
46139;DHT22;32398;49.112;8.598;2023-10-19T14:59:20;14.70;96.40
46139;DHT22;32398;49.112;8.598;2023-10-19T15:01:47;14.90;98.10
46139;DHT22;32398;49.112;8.598;2023-10-19T15:04:14;15.00;99.20
46139;DHT22;32398;49.112;8.598;2023-10-19T15:06:41;15.10;99.80
46139;DHT22;32398;49.112;8.598;2023-10-19T15:09:09;15.20;99.90
46139;DHT22;32398;49.112;8.598;2023-10-19T15:11:40;15.30;99.90
46139;DHT22;32398;49.112;8.598;2023-10-19T15:14:07;15.30;99.90
46139;DHT22;32398;49.112;8.598;2023-10-19T15:16:33;15.40;99.90
46139;DHT22;32398;49.112;8.598;2023-10-19T15:19:00;15.50;99.90
46139;DHT22;32398;49.112;8.598;2023-10-19T15:21:29;15.50;99.90
46139;DHT22;32398;49.112;8.598;2023-10-19T15:23:55;15.60;99.90
46139;DHT22;32398;49.112;8.598;2023-10-19T15:26:23;15.70;99.90
46139;DHT22;32398;49.112;8.598;2023-10-19T15:28:50;15.70;99.90
46139;DHT22;32398;49.112;8.598;2023-10-19T15:31:16;15.70;99.90
46139;DHT22;32398;49.112;8.598;2023-10-19T15:33:44;15.80;99.90
46139;DHT22;32398;49.112;8.598;2023-10-19T15:36:12;15.80;99.90
46139;DHT22;32398;49.112;8.598;2023-10-19T15:38:39;15.90;99.90
46139;DHT22;32398;49.112;8.598;2023-10-19T15:41:05;15.90;99.90
46139;DHT22;32398;49.112;8.598;2023-10-19T15:43:34;15.90;99.90
46139;DHT22;32398;49.112;8.598;2023-10-19T15:46:00;15.90;99.90